createdAt,value
2022-11-24T00:00:29.267Z,985.20
2022-11-24T00:01:29.215Z,985.20
2022-11-24T00:02:29.296Z,985.28
2022-11-24T00:03:29.147Z,985.28
2022-11-24T00:04:29.015Z,985.24
2022-11-24T00:05:28.947Z,985.23
2022-11-24T00:06:28.888Z,985.28
2022-11-24T00:07:28.848Z,985.23
2022-11-24T00:08:28.749Z,985.27
2022-11-24T00:09:28.698Z,985.24
2022-11-24T00:10:28.612Z,985.32
2022-11-24T00:11:28.555Z,985.35
2022-11-24T00:12:28.484Z,985.37
2022-11-24T00:13:28.439Z,985.31
2022-11-24T00:14:28.371Z,985.36
2022-11-24T00:15:28.317Z,985.28
2022-11-24T00:16:28.337Z,985.31
2022-11-24T00:17:28.162Z,985.38
2022-11-24T00:18:28.095Z,985.35
2022-11-24T00:19:28.040Z,985.33
2022-11-24T00:20:27.990Z,985.37
2022-11-24T00:21:27.964Z,985.42
2022-11-24T00:22:27.852Z,985.43
2022-11-24T00:23:27.790Z,985.41
2022-11-24T00:24:27.718Z,985.39
2022-11-24T00:25:27.657Z,985.37
2022-11-24T00:26:27.609Z,985.37
2022-11-24T00:27:27.558Z,985.43
2022-11-24T00:28:27.474Z,985.49
2022-11-24T00:29:27.371Z,985.46
2022-11-24T00:30:27.343Z,985.45
2022-11-24T00:31:27.310Z,985.44
2022-11-24T00:32:27.208Z,985.50
2022-11-24T00:33:27.123Z,985.47
2022-11-24T00:34:27.035Z,985.50
2022-11-24T00:35:26.965Z,985.45
2022-11-24T00:36:26.923Z,985.49
2022-11-24T00:37:26.844Z,985.56
2022-11-24T00:38:26.806Z,985.53
2022-11-24T00:39:26.710Z,985.58
2022-11-24T00:40:30.802Z,985.59
2022-11-24T00:41:26.626Z,985.56
2022-11-24T00:42:26.567Z,985.65
2022-11-24T00:43:26.514Z,985.65
2022-11-24T00:44:26.460Z,985.65
2022-11-24T00:45:26.380Z,985.71
2022-11-24T00:46:26.418Z,985.66
2022-11-24T00:47:26.250Z,985.73
2022-11-24T00:48:26.135Z,985.70
2022-11-24T00:49:26.083Z,985.69
2022-11-24T00:50:26.000Z,985.66
2022-11-24T00:51:25.956Z,985.65
2022-11-24T00:52:25.899Z,985.70
2022-11-24T00:53:25.802Z,985.70
2022-11-24T00:54:25.766Z,985.71
2022-11-24T00:55:25.690Z,985.68
2022-11-24T00:56:25.661Z,985.77
2022-11-24T00:57:25.574Z,985.74
2022-11-24T00:58:25.507Z,985.76
2022-11-24T00:59:25.432Z,985.74
2022-11-24T01:00:25.403Z,985.77
2022-11-24T01:01:25.348Z,985.77
2022-11-24T01:02:25.239Z,985.80
2022-11-24T01:03:25.172Z,985.82
2022-11-24T01:04:25.152Z,985.83
2022-11-24T01:05:25.080Z,985.79
2022-11-24T01:06:25.031Z,985.84
2022-11-24T01:07:25.015Z,985.87
2022-11-24T01:08:24.897Z,985.90
2022-11-24T01:09:24.851Z,985.93
2022-11-24T01:10:24.709Z,985.95
2022-11-24T01:11:24.650Z,985.91
2022-11-24T01:12:24.599Z,985.97
2022-11-24T01:13:24.527Z,985.91
2022-11-24T01:14:24.465Z,985.94
2022-11-24T01:15:45.805Z,985.91
2022-11-24T01:16:24.437Z,985.93
2022-11-24T01:17:24.249Z,985.89
2022-11-24T01:18:24.200Z,985.92
2022-11-24T01:19:24.247Z,985.91
2022-11-24T01:20:24.066Z,985.99
2022-11-24T01:21:24.018Z,986.00
2022-11-24T01:22:23.951Z,986.01
2022-11-24T01:23:23.878Z,986.00
2022-11-24T01:24:23.805Z,985.99
2022-11-24T01:25:23.748Z,986.03
2022-11-24T01:26:23.665Z,986.04
2022-11-24T01:27:23.684Z,986.05
2022-11-24T01:28:23.561Z,986.08
2022-11-24T01:29:23.508Z,986.09
2022-11-24T01:30:23.423Z,986.09
2022-11-24T01:31:23.433Z,986.07
2022-11-24T01:32:23.282Z,986.10
2022-11-24T01:33:23.520Z,986.05
2022-11-24T01:34:23.160Z,986.03
2022-11-24T01:35:23.085Z,986.05
2022-11-24T01:36:23.027Z,986.09
2022-11-24T01:37:22.956Z,986.05
2022-11-24T01:38:22.902Z,986.07
2022-11-24T01:39:23.129Z,986.07
2022-11-24T01:40:22.773Z,986.07
2022-11-24T01:41:22.714Z,986.09
2022-11-24T01:42:22.699Z,986.10
2022-11-24T01:43:22.639Z,986.10
2022-11-24T01:44:22.562Z,986.10
2022-11-24T01:45:22.511Z,986.12
2022-11-24T01:46:22.458Z,986.10
2022-11-24T01:47:22.388Z,986.09
2022-11-24T01:48:27.167Z,986.12
2022-11-24T01:49:22.240Z,986.12
2022-11-24T01:50:22.190Z,986.09
2022-11-24T01:52:31.297Z,986.05
2022-11-24T01:53:32.208Z,986.02
2022-11-24T01:54:32.699Z,986.00
2022-11-24T01:55:32.145Z,986.01
2022-11-24T01:56:32.104Z,985.99
2022-11-24T01:57:32.033Z,986.01
2022-11-24T01:58:31.955Z,986.02
2022-11-24T01:59:31.879Z,986.00
2022-11-24T02:00:31.831Z,985.99
2022-11-24T02:01:31.805Z,986.04
2022-11-24T02:02:31.738Z,986.09
2022-11-24T02:03:31.636Z,986.13
2022-11-24T02:04:31.924Z,986.14
2022-11-24T02:05:31.478Z,986.18
2022-11-24T02:06:31.427Z,986.22
2022-11-24T02:07:31.382Z,986.22
2022-11-24T02:08:31.304Z,986.26
2022-11-24T02:09:31.248Z,986.24
2022-11-24T02:10:31.185Z,986.26
2022-11-24T02:11:31.092Z,986.30
2022-11-24T02:12:30.986Z,986.29
2022-11-24T02:13:30.925Z,986.30
2022-11-24T02:14:31.002Z,986.32
2022-11-24T02:15:30.925Z,986.25
2022-11-24T02:16:30.753Z,986.30
2022-11-24T02:17:30.674Z,986.30
2022-11-24T02:18:30.596Z,986.32
2022-11-24T02:19:30.533Z,986.34
2022-11-24T02:20:30.506Z,986.36
2022-11-24T02:21:30.420Z,986.40
2022-11-24T02:22:30.354Z,986.38
2022-11-24T02:23:30.288Z,986.40
2022-11-24T02:24:30.241Z,986.42
2022-11-24T02:25:30.143Z,986.36
2022-11-24T02:26:30.116Z,986.37
2022-11-24T02:27:30.029Z,986.41
2022-11-24T02:28:29.965Z,986.38
2022-11-24T02:29:29.885Z,986.38
2022-11-24T02:30:29.843Z,986.37
2022-11-24T02:31:29.831Z,986.37
2022-11-24T02:32:29.699Z,986.38
2022-11-24T02:33:29.913Z,986.42
2022-11-24T02:34:29.612Z,986.42
2022-11-24T02:35:29.556Z,986.45
2022-11-24T02:36:29.459Z,986.49
2022-11-24T02:37:29.392Z,986.53
2022-11-24T02:38:29.316Z,986.54
2022-11-24T02:39:29.531Z,986.51
2022-11-24T02:40:29.178Z,986.57
2022-11-24T02:41:29.129Z,986.62
2022-11-24T02:42:29.054Z,986.66
2022-11-24T02:43:29.039Z,986.60
2022-11-24T02:44:28.979Z,986.60
2022-11-24T02:45:28.930Z,986.63
2022-11-24T02:46:28.907Z,986.63
2022-11-24T02:47:28.740Z,986.62
2022-11-24T02:48:28.652Z,986.55
2022-11-24T02:49:28.605Z,986.60
2022-11-24T02:50:28.545Z,986.60
2022-11-24T02:51:28.493Z,986.58
2022-11-24T02:52:28.473Z,986.60
2022-11-24T02:53:28.394Z,986.60
2022-11-24T02:54:28.331Z,986.67
2022-11-24T02:55:28.220Z,986.60
2022-11-24T02:56:28.165Z,986.61
2022-11-24T02:57:28.087Z,986.60
2022-11-24T02:58:28.020Z,986.58
2022-11-24T02:59:27.960Z,986.53
2022-11-24T03:00:27.897Z,986.56
2022-11-24T03:01:27.906Z,986.56
2022-11-24T03:02:27.807Z,986.61
2022-11-24T03:05:37.437Z,986.55
2022-11-24T03:06:38.328Z,986.59
2022-11-24T03:07:38.302Z,986.60
2022-11-24T03:08:38.212Z,986.60
2022-11-24T03:09:38.202Z,986.62
2022-11-24T03:10:38.059Z,986.61
2022-11-24T03:11:38.010Z,986.63
2022-11-24T03:12:37.987Z,986.56
2022-11-24T03:13:37.884Z,986.59
2022-11-24T03:14:37.773Z,986.64
2022-11-24T03:15:37.774Z,986.62
2022-11-24T03:16:37.656Z,986.58
2022-11-24T03:17:37.626Z,986.56
2022-11-24T03:18:37.608Z,986.52
2022-11-24T03:19:37.538Z,986.52
2022-11-24T03:20:37.438Z,986.53
2022-11-24T03:21:59.558Z,986.56
2022-11-24T03:22:37.321Z,986.59
2022-11-24T03:23:37.200Z,986.60
2022-11-24T03:24:37.118Z,986.62
2022-11-24T03:25:37.066Z,986.69
2022-11-24T03:26:37.026Z,986.67
2022-11-24T03:27:36.952Z,986.69
2022-11-24T03:28:36.883Z,986.70
2022-11-24T03:29:36.812Z,986.69
2022-11-24T03:30:36.730Z,986.64
2022-11-24T03:31:36.754Z,986.68
2022-11-24T03:32:36.602Z,986.68
2022-11-24T03:33:36.575Z,986.72
2022-11-24T03:34:36.617Z,986.73
2022-11-24T03:35:36.436Z,986.78
2022-11-24T03:36:36.383Z,986.82
2022-11-24T03:37:36.290Z,986.85
2022-11-24T03:38:36.215Z,986.82
2022-11-24T03:44:37.906Z,986.84
2022-11-24T03:45:44.122Z,986.85
2022-11-24T03:46:13.852Z,986.91
2022-11-24T03:47:13.685Z,986.85
2022-11-24T03:48:13.607Z,986.87
2022-11-24T03:49:13.540Z,986.89
2022-11-24T03:50:13.502Z,986.84
2022-11-24T03:51:13.401Z,986.86
2022-11-24T03:52:13.408Z,986.89
2022-11-24T03:53:13.347Z,986.89
2022-11-24T03:54:13.281Z,986.90
2022-11-24T03:55:13.219Z,986.91
2022-11-24T03:56:13.155Z,986.90
2022-11-24T03:57:13.081Z,986.89
2022-11-24T03:58:13.019Z,986.90
2022-11-24T03:59:12.948Z,986.91
2022-11-24T04:00:12.899Z,986.91
2022-11-24T04:01:12.823Z,986.89
2022-11-24T04:04:31.285Z,986.92
2022-11-24T04:05:32.122Z,986.99
2022-11-24T04:06:32.078Z,986.97
2022-11-24T04:07:32.074Z,986.95
2022-11-24T04:08:31.935Z,987.00
2022-11-24T04:09:31.900Z,987.01
2022-11-24T04:10:31.817Z,987.05
2022-11-24T04:11:31.763Z,987.07
2022-11-24T04:12:31.676Z,987.10
2022-11-24T04:13:31.624Z,987.11
2022-11-24T04:14:31.773Z,987.09
2022-11-24T04:15:31.505Z,987.14
2022-11-24T04:16:31.427Z,987.14
2022-11-24T04:17:31.368Z,987.13
2022-11-24T04:18:31.254Z,987.15
2022-11-24T04:19:31.171Z,987.16
2022-11-24T04:20:31.107Z,987.19
2022-11-24T04:23:49.468Z,987.21
2022-11-24T04:24:50.382Z,987.19
2022-11-24T04:25:50.337Z,987.18
2022-11-24T04:26:50.253Z,987.23
2022-11-24T04:27:50.190Z,987.22
2022-11-24T04:28:50.163Z,987.23
2022-11-24T04:29:50.031Z,987.27
2022-11-24T04:30:49.967Z,987.23
2022-11-24T04:31:49.938Z,987.25
2022-11-24T04:32:49.908Z,987.29
2022-11-24T04:33:49.781Z,987.26
2022-11-24T04:34:49.715Z,987.26
2022-11-24T04:35:49.647Z,987.25
2022-11-24T04:36:49.623Z,987.24
2022-11-24T04:37:49.572Z,987.25
2022-11-24T04:39:25.723Z,987.26
2022-11-24T04:39:49.436Z,987.25
2022-11-24T04:42:48.114Z,987.28
2022-11-24T04:43:49.021Z,987.31
2022-11-24T04:44:48.928Z,987.36
2022-11-24T04:45:48.893Z,987.29
2022-11-24T04:46:48.875Z,987.33
2022-11-24T04:47:49.053Z,987.34
2022-11-24T04:48:48.712Z,987.40
2022-11-24T04:49:48.637Z,987.38
2022-11-24T04:50:48.613Z,987.42
2022-11-24T04:51:48.494Z,987.45
2022-11-24T04:52:48.448Z,987.45
2022-11-24T04:53:48.407Z,987.42
2022-11-24T04:54:48.306Z,987.47
2022-11-24T04:55:48.249Z,987.44
2022-11-24T04:56:48.195Z,987.49
2022-11-24T04:57:48.127Z,987.40
2022-11-24T04:58:48.068Z,987.43
2022-11-24T05:02:06.506Z,987.52
2022-11-24T05:03:07.365Z,987.52
2022-11-24T05:04:07.356Z,987.56
2022-11-24T05:05:07.222Z,987.59
2022-11-24T05:06:07.158Z,987.59
2022-11-24T05:07:07.147Z,987.59
2022-11-24T05:08:07.029Z,987.59
2022-11-24T05:09:06.968Z,987.65
2022-11-24T05:10:06.936Z,987.68
2022-11-24T05:11:06.870Z,987.69
2022-11-24T05:12:06.808Z,987.71
2022-11-24T05:13:06.724Z,987.64
2022-11-24T05:14:06.673Z,987.63
2022-11-24T05:15:06.602Z,987.64
2022-11-24T05:16:06.572Z,987.62
2022-11-24T05:17:06.461Z,987.62
2022-11-24T05:18:06.421Z,987.65
2022-11-24T05:19:06.384Z,987.66
2022-11-24T05:20:06.227Z,987.70
2022-11-24T05:21:06.251Z,987.65
2022-11-24T05:22:06.187Z,987.63
2022-11-24T05:23:06.065Z,987.69
2022-11-24T05:24:05.984Z,987.66
2022-11-24T05:25:05.998Z,987.66
2022-11-24T05:26:05.905Z,987.64
2022-11-24T05:27:05.843Z,987.63
2022-11-24T05:28:05.799Z,987.64
2022-11-24T05:29:05.740Z,987.63
2022-11-24T05:30:05.652Z,987.59
2022-11-24T05:31:05.663Z,987.61
2022-11-24T05:32:05.523Z,987.56
2022-11-24T05:33:05.481Z,987.58
2022-11-24T05:34:05.389Z,987.59
2022-11-24T05:35:05.380Z,987.62
2022-11-24T05:36:05.284Z,987.64
2022-11-24T05:37:06.449Z,987.67
2022-11-24T05:38:05.138Z,987.66
2022-11-24T05:39:05.078Z,987.69
2022-11-24T05:40:05.014Z,987.75
2022-11-24T05:41:04.966Z,987.72
2022-11-24T05:42:04.888Z,987.76
2022-11-24T05:43:04.830Z,987.75
2022-11-24T05:44:04.776Z,987.78
2022-11-24T05:45:04.658Z,987.76
2022-11-24T05:46:04.627Z,987.76
2022-11-24T05:47:04.593Z,987.77
2022-11-24T05:48:04.490Z,987.81
2022-11-24T05:49:25.498Z,987.75
2022-11-24T05:50:04.332Z,987.78
2022-11-24T05:51:09.104Z,987.81
2022-11-24T05:52:04.213Z,987.75
2022-11-24T05:53:04.176Z,987.74
2022-11-24T05:54:04.107Z,987.77
2022-11-24T05:56:13.289Z,987.77
2022-11-24T05:57:14.193Z,987.79
2022-11-24T05:58:14.155Z,987.79
2022-11-24T05:59:14.068Z,987.77
2022-11-24T06:00:13.982Z,987.79
2022-11-24T06:01:13.958Z,987.81
2022-11-24T06:02:13.890Z,987.79
2022-11-24T06:03:13.882Z,987.82
2022-11-24T06:04:13.776Z,987.81
2022-11-24T06:05:13.708Z,987.89
2022-11-24T06:06:13.594Z,987.85
2022-11-24T06:07:13.627Z,987.88
2022-11-24T06:08:13.460Z,987.82
2022-11-24T06:09:13.448Z,987.86
2022-11-24T06:10:13.361Z,987.89
2022-11-24T06:11:13.325Z,987.90
2022-11-24T06:12:13.161Z,987.88
2022-11-24T06:13:13.156Z,987.87
2022-11-24T06:14:13.056Z,987.80
2022-11-24T06:15:13.044Z,987.80
2022-11-24T06:16:13.080Z,987.79
2022-11-24T06:17:12.913Z,987.82
2022-11-24T06:18:12.879Z,987.89
2022-11-24T06:19:12.801Z,987.94
2022-11-24T06:20:12.666Z,987.96
2022-11-24T06:21:12.655Z,988.00
2022-11-24T06:22:12.576Z,988.00
2022-11-24T06:23:12.445Z,988.05
2022-11-24T06:24:12.404Z,988.05
2022-11-24T06:25:12.364Z,988.07
2022-11-24T06:26:12.299Z,988.10
2022-11-24T06:27:12.239Z,988.12
2022-11-24T06:28:12.179Z,988.14
2022-11-24T06:29:12.070Z,988.19
2022-11-24T06:30:12.024Z,988.19
2022-11-24T06:31:12.064Z,988.21
2022-11-24T06:32:11.896Z,988.18
2022-11-24T06:33:11.835Z,988.21
2022-11-24T06:34:11.775Z,988.18
2022-11-24T06:35:11.700Z,988.19
2022-11-24T06:36:11.679Z,988.22
2022-11-24T06:37:12.032Z,988.23
2022-11-24T06:38:11.487Z,988.24
2022-11-24T06:39:11.443Z,988.26
2022-11-24T06:40:11.957Z,988.23
2022-11-24T06:41:11.294Z,988.27
2022-11-24T06:42:11.252Z,988.31
2022-11-24T06:43:11.180Z,988.32
2022-11-24T06:44:11.153Z,988.32
2022-11-24T06:45:11.278Z,988.33
2022-11-24T06:46:11.530Z,988.30
2022-11-24T06:47:10.931Z,988.31
2022-11-24T06:48:11.706Z,988.32
2022-11-24T06:49:11.478Z,988.36
2022-11-24T06:50:10.831Z,988.36
2022-11-24T06:51:10.652Z,988.41
2022-11-24T06:52:10.642Z,988.38
2022-11-24T06:53:18.201Z,988.38
2022-11-24T06:54:23.492Z,988.44
2022-11-24T06:55:21.735Z,988.46
2022-11-24T06:56:16.749Z,988.43
2022-11-24T06:57:12.377Z,988.45
2022-11-24T06:58:10.228Z,988.44
2022-11-24T06:59:10.194Z,988.47
2022-11-24T07:00:10.098Z,988.46
2022-11-24T07:01:10.189Z,988.43
2022-11-24T07:02:09.948Z,988.49
2022-11-24T07:03:09.978Z,988.46
2022-11-24T07:04:10.021Z,988.45
2022-11-24T07:05:09.810Z,988.47
2022-11-24T07:06:09.728Z,988.47
2022-11-24T07:09:49.003Z,988.47
2022-11-24T07:10:28.935Z,988.47
2022-11-24T07:11:28.854Z,988.49
2022-11-24T07:12:28.788Z,988.52
2022-11-24T07:13:28.699Z,988.54
2022-11-24T07:14:28.686Z,988.60
2022-11-24T07:15:28.594Z,988.58
2022-11-24T07:16:28.576Z,988.56
2022-11-24T07:17:28.478Z,988.60
2022-11-24T07:18:28.401Z,988.59
2022-11-24T07:19:28.313Z,988.61
2022-11-24T07:20:28.300Z,988.65
2022-11-24T07:21:28.275Z,988.63
2022-11-24T07:22:28.222Z,988.61
2022-11-24T07:23:28.096Z,988.65
2022-11-24T07:24:28.023Z,988.65
2022-11-24T07:25:27.985Z,988.67
2022-11-24T07:26:27.895Z,988.68
2022-11-24T07:27:27.851Z,988.69
2022-11-24T07:28:27.762Z,988.67
2022-11-24T07:29:27.699Z,988.72
2022-11-24T07:30:27.734Z,988.72
2022-11-24T07:31:27.615Z,988.75
2022-11-24T07:32:27.508Z,988.80
2022-11-24T07:33:27.467Z,988.86
2022-11-24T07:34:27.407Z,988.86
2022-11-24T07:35:27.291Z,988.88
2022-11-24T07:36:27.636Z,988.80
2022-11-24T07:37:31.226Z,988.86
2022-11-24T07:38:27.167Z,988.85
2022-11-24T07:39:27.352Z,988.89
2022-11-24T07:40:27.141Z,988.87
2022-11-24T07:41:32.406Z,988.89
2022-11-24T07:42:26.862Z,988.91
2022-11-24T07:43:26.832Z,988.92
2022-11-24T07:44:26.711Z,988.95
2022-11-24T07:47:45.038Z,988.96
2022-11-24T07:48:45.997Z,988.99
2022-11-24T07:49:45.951Z,989.00
2022-11-24T07:50:48.834Z,989.05
2022-11-24T07:51:45.753Z,989.05
2022-11-24T07:52:46.651Z,989.08
2022-11-24T07:53:45.766Z,989.06
2022-11-24T07:54:45.586Z,989.12
2022-11-24T07:55:45.559Z,989.07
2022-11-24T07:56:45.484Z,989.09
2022-11-24T07:57:45.421Z,989.12
2022-11-24T07:58:49.706Z,989.08
2022-11-24T07:59:45.332Z,989.09
2022-11-24T08:00:45.211Z,989.13
2022-11-24T08:01:45.267Z,989.13
2022-11-24T08:02:45.115Z,989.13
2022-11-24T08:03:45.070Z,989.18
2022-11-24T08:04:45.033Z,989.18
2022-11-24T08:06:08.242Z,989.15
2022-11-24T08:06:47.492Z,989.17
2022-11-24T08:07:44.783Z,989.20
2022-11-24T08:08:44.711Z,989.17
2022-11-24T08:09:44.648Z,989.19
2022-11-24T08:10:44.567Z,989.16
2022-11-24T08:11:44.502Z,989.22
2022-11-24T08:12:44.478Z,989.21
2022-11-24T08:13:44.372Z,989.24
2022-11-24T08:14:44.268Z,989.28
2022-11-24T08:15:46.549Z,989.29
2022-11-24T08:16:46.407Z,989.29
2022-11-24T08:17:44.998Z,989.31
2022-11-24T08:18:44.050Z,989.32
2022-11-24T08:19:43.982Z,989.28
2022-11-24T08:20:43.912Z,989.33
2022-11-24T08:21:43.855Z,989.25
2022-11-24T08:22:43.800Z,989.30
2022-11-24T08:23:43.723Z,989.28
2022-11-24T08:24:43.633Z,989.25
2022-11-24T08:25:43.608Z,989.25
2022-11-24T08:26:43.592Z,989.25
2022-11-24T08:27:43.462Z,989.31
2022-11-24T08:28:43.440Z,989.35
2022-11-24T08:29:43.352Z,989.30
2022-11-24T08:30:43.293Z,989.32
2022-11-24T08:31:43.246Z,989.31
2022-11-24T08:32:43.172Z,989.34
2022-11-24T08:33:43.101Z,989.35
2022-11-24T08:34:43.055Z,989.31
2022-11-24T08:35:42.975Z,989.33
2022-11-24T08:36:42.859Z,989.31
2022-11-24T08:37:42.825Z,989.31
2022-11-24T08:38:42.775Z,989.36
2022-11-24T08:39:42.696Z,989.35
2022-11-24T08:43:00.990Z,989.42
2022-11-24T08:44:01.918Z,989.39
2022-11-24T08:45:17.534Z,989.47
2022-11-24T08:46:01.815Z,989.46
2022-11-24T08:47:01.748Z,989.46
2022-11-24T08:48:01.644Z,989.48
2022-11-24T08:49:01.628Z,989.46
2022-11-24T08:50:01.554Z,989.53
2022-11-24T08:51:01.443Z,989.57
2022-11-24T08:52:01.431Z,989.58
2022-11-24T08:53:01.379Z,989.60
2022-11-24T08:54:01.280Z,989.62
2022-11-24T08:55:01.249Z,989.62
2022-11-24T08:56:01.144Z,989.63
2022-11-24T08:57:01.180Z,989.65
2022-11-24T08:58:01.017Z,989.63
2022-11-24T08:59:00.991Z,989.69
2022-11-24T09:00:01.193Z,989.65
2022-11-24T09:01:00.897Z,989.66
2022-11-24T09:02:00.855Z,989.71
2022-11-24T09:03:00.727Z,989.69
2022-11-24T09:04:00.750Z,989.66
2022-11-24T09:05:00.554Z,989.67
2022-11-24T09:06:00.526Z,989.68
2022-11-24T09:07:00.466Z,989.74
2022-11-24T09:08:00.399Z,989.71
2022-11-24T09:09:00.325Z,989.72
2022-11-24T09:10:00.303Z,989.73
2022-11-24T09:11:00.199Z,989.80
2022-11-24T09:12:00.155Z,989.77
2022-11-24T09:13:00.073Z,989.81
2022-11-24T09:13:59.979Z,989.83
2022-11-24T09:14:59.928Z,989.81
2022-11-24T09:15:59.895Z,989.77
2022-11-24T09:16:59.888Z,989.75
2022-11-24T09:18:00.949Z,989.78
2022-11-24T09:18:59.663Z,989.81
2022-11-24T09:19:59.609Z,989.87
2022-11-24T09:20:59.567Z,989.91
2022-11-24T09:21:59.703Z,989.88
2022-11-24T09:22:59.817Z,989.89
2022-11-24T09:23:59.456Z,989.92
2022-11-24T09:24:59.435Z,989.92
2022-11-24T09:25:59.193Z,989.94
2022-11-24T09:26:59.700Z,989.96
2022-11-24T09:27:59.122Z,989.97
2022-11-24T09:28:59.079Z,989.96
2022-11-24T09:29:59.005Z,989.94
2022-11-24T09:30:58.999Z,989.99
2022-11-24T09:32:05.082Z,990.00
2022-11-24T09:32:58.785Z,989.98
2022-11-24T09:33:58.717Z,989.96
2022-11-24T09:34:58.649Z,989.94
2022-11-24T09:36:19.548Z,989.90
2022-11-24T09:36:58.525Z,989.98
2022-11-24T09:37:58.463Z,989.94
2022-11-24T09:38:58.368Z,989.99
2022-11-24T09:39:58.331Z,990.00
2022-11-24T09:40:58.241Z,990.08
2022-11-24T09:41:58.225Z,990.01
2022-11-24T09:42:58.110Z,990.02
2022-11-24T09:43:58.094Z,990.03
2022-11-24T09:44:58.018Z,990.05
2022-11-24T09:46:05.506Z,990.11
2022-11-24T09:46:57.913Z,990.07
2022-11-24T09:47:57.942Z,990.10
2022-11-24T09:48:57.756Z,990.10
2022-11-24T09:49:57.715Z,990.08
2022-11-24T09:50:57.624Z,990.10
2022-11-24T09:51:57.623Z,990.12
2022-11-24T09:52:57.475Z,990.11
2022-11-24T09:53:57.519Z,990.08
2022-11-24T09:54:57.400Z,990.07
2022-11-24T09:55:57.311Z,990.05
2022-11-24T09:56:57.253Z,990.04
2022-11-24T09:57:57.210Z,990.06
2022-11-24T09:58:57.118Z,990.07
2022-11-24T09:59:57.074Z,990.06
2022-11-24T10:00:56.988Z,990.04
2022-11-24T10:01:57.054Z,990.03
2022-11-24T10:02:56.839Z,990.06
2022-11-24T10:04:01.110Z,990.04
2022-11-24T10:04:56.830Z,990.02
2022-11-24T10:05:56.693Z,990.07
2022-11-24T10:06:56.611Z,990.04
2022-11-24T10:07:57.601Z,990.00
2022-11-24T10:08:56.611Z,990.02
2022-11-24T10:09:56.394Z,990.04
2022-11-24T10:10:56.317Z,990.05
2022-11-24T10:15:34.593Z,990.09
2022-11-24T10:16:35.487Z,990.08
2022-11-24T10:17:37.678Z,990.11
2022-11-24T10:18:36.247Z,990.12
2022-11-24T10:19:37.348Z,990.12
2022-11-24T10:20:35.138Z,990.14
2022-11-24T10:21:35.075Z,990.17
2022-11-24T10:22:35.036Z,990.17
2022-11-24T10:23:39.624Z,990.19
2022-11-24T10:24:34.934Z,990.19
2022-11-24T10:25:34.838Z,990.21
2022-11-24T10:26:35.082Z,990.20
2022-11-24T10:27:34.717Z,990.21
2022-11-24T10:28:34.649Z,990.24
2022-11-24T10:29:34.858Z,990.27
2022-11-24T10:30:34.516Z,990.23
2022-11-24T10:31:34.596Z,990.26
2022-11-24T10:32:34.390Z,990.22
2022-11-24T10:33:34.302Z,990.28
2022-11-24T10:34:34.264Z,990.28
2022-11-24T10:35:34.199Z,990.25
2022-11-24T10:36:34.107Z,990.27
2022-11-24T10:37:34.083Z,990.30
2022-11-24T10:38:34.073Z,990.30
2022-11-24T10:39:34.456Z,990.31
2022-11-24T10:40:55.769Z,990.32
2022-11-24T10:41:33.846Z,990.28
2022-11-24T10:42:33.750Z,990.26
2022-11-24T10:43:33.725Z,990.29
2022-11-24T10:44:33.666Z,990.28
2022-11-24T10:45:33.588Z,990.28
2022-11-24T10:46:39.055Z,990.25
2022-11-24T10:47:33.536Z,990.27
2022-11-24T10:48:33.366Z,990.27
2022-11-24T10:49:33.728Z,990.28
2022-11-24T10:50:33.399Z,990.32
2022-11-24T10:51:33.185Z,990.28
2022-11-24T10:52:33.123Z,990.27
2022-11-24T10:53:33.080Z,990.30
2022-11-24T10:54:33.007Z,990.32
2022-11-24T10:55:32.993Z,990.26
2022-11-24T10:56:32.882Z,990.24
2022-11-24T10:57:32.835Z,990.18
2022-11-24T10:58:37.425Z,990.20
2022-11-24T10:59:32.922Z,990.24
2022-11-24T11:00:32.602Z,990.23
2022-11-24T11:01:32.738Z,990.23
2022-11-24T11:02:32.632Z,990.25
2022-11-24T11:03:32.421Z,990.30
2022-11-24T11:04:32.320Z,990.28
2022-11-24T11:05:32.345Z,990.32
2022-11-24T11:06:32.221Z,990.32
2022-11-24T11:07:33.740Z,990.38
2022-11-24T11:08:32.088Z,990.36
2022-11-24T11:09:32.165Z,990.38
2022-11-24T11:10:31.988Z,990.41
2022-11-24T11:11:31.916Z,990.43
2022-11-24T11:12:47.101Z,990.44
2022-11-24T11:13:31.759Z,990.44
2022-11-24T11:14:31.670Z,990.42
2022-11-24T11:15:31.772Z,990.41
2022-11-24T11:16:32.085Z,990.44
2022-11-24T11:17:31.931Z,990.44
2022-11-24T11:18:31.494Z,990.44
2022-11-24T11:20:31.307Z,990.50
2022-11-24T11:21:31.305Z,990.38
2022-11-24T11:22:31.217Z,990.41
2022-11-24T11:23:31.157Z,990.38
2022-11-24T11:24:31.058Z,990.42
2022-11-24T11:25:31.249Z,990.39
2022-11-24T11:26:30.978Z,990.44
2022-11-24T11:27:30.874Z,990.48
2022-11-24T11:28:30.784Z,990.46
2022-11-24T11:31:30.671Z,990.47
2022-11-24T11:34:30.695Z,990.47
2022-11-24T11:35:30.359Z,990.53
2022-11-24T11:36:30.314Z,990.50
2022-11-24T11:37:30.275Z,990.51
2022-11-24T11:38:30.166Z,990.46
2022-11-24T11:39:30.157Z,990.50
2022-11-24T11:40:30.155Z,990.48
2022-11-24T11:41:30.080Z,990.47
2022-11-24T11:43:00.721Z,990.47
2022-11-24T11:43:29.866Z,990.50
2022-11-24T11:44:29.777Z,990.53
2022-11-24T11:45:29.760Z,990.47
2022-11-24T11:46:29.685Z,990.45
2022-11-24T11:47:29.625Z,990.48
2022-11-24T11:48:32.491Z,990.47
2022-11-24T11:49:29.498Z,990.45
2022-11-24T11:50:29.452Z,990.47
2022-11-24T11:51:29.632Z,990.46
2022-11-24T11:52:29.261Z,990.45
2022-11-24T11:53:29.226Z,990.46
2022-11-24T11:54:29.137Z,990.44
2022-11-24T11:55:29.080Z,990.46
2022-11-24T11:56:29.003Z,990.47
2022-11-24T11:57:28.947Z,990.47
2022-11-24T11:58:28.883Z,990.48
2022-11-24T11:59:28.799Z,990.52
2022-11-24T12:00:28.745Z,990.56
2022-11-24T12:01:28.715Z,990.61
2022-11-24T12:02:28.764Z,990.59
2022-11-24T12:03:28.658Z,990.54
2022-11-24T12:04:28.487Z,990.52
2022-11-24T12:05:28.453Z,990.57
2022-11-24T12:06:28.354Z,990.56
2022-11-24T12:07:28.335Z,990.59
2022-11-24T12:08:28.261Z,990.62
2022-11-24T12:09:28.158Z,990.70
2022-11-24T12:10:28.105Z,990.62
2022-11-24T12:11:28.033Z,990.70
2022-11-24T12:12:27.960Z,990.70
2022-11-24T12:13:27.944Z,990.71
2022-11-24T12:14:28.345Z,990.74
2022-11-24T12:15:27.769Z,990.78
2022-11-24T12:16:27.906Z,990.75
2022-11-24T12:17:27.703Z,990.80
2022-11-24T12:18:55.836Z,990.87
2022-11-24T12:19:27.538Z,990.82
2022-11-24T12:20:27.488Z,990.88
2022-11-24T12:21:28.152Z,990.83
2022-11-24T12:22:27.396Z,990.84
2022-11-24T12:23:27.290Z,990.83
2022-11-24T12:24:27.233Z,990.86
2022-11-24T12:25:27.864Z,990.89
2022-11-24T12:26:27.048Z,990.87
2022-11-24T12:27:27.009Z,990.86
2022-11-24T12:28:26.973Z,990.85
2022-11-24T12:29:26.859Z,990.83
2022-11-24T12:30:26.895Z,990.92
2022-11-24T12:31:26.930Z,990.90
2022-11-24T12:32:26.688Z,990.91
2022-11-24T12:33:26.653Z,990.92
2022-11-24T12:34:26.562Z,990.91
2022-11-24T12:35:26.489Z,990.94
2022-11-24T12:36:26.400Z,990.96
2022-11-24T12:37:27.588Z,990.91
2022-11-24T12:38:26.296Z,990.94
2022-11-24T12:39:26.265Z,990.91
2022-11-24T12:40:26.174Z,990.92
2022-11-24T12:41:41.191Z,990.91
2022-11-24T12:42:26.049Z,990.90
2022-11-24T12:43:26.030Z,990.94
2022-11-24T12:44:25.943Z,990.93
2022-11-24T12:45:25.857Z,990.92
2022-11-24T12:46:25.832Z,990.95
2022-11-24T12:47:25.729Z,991.04
2022-11-24T12:48:25.660Z,990.94
2022-11-24T12:49:25.816Z,990.97
2022-11-24T12:50:25.560Z,990.94
2022-11-24T12:51:25.465Z,990.92
2022-11-24T12:52:25.433Z,990.94
2022-11-24T12:53:25.346Z,990.95
2022-11-24T12:54:25.298Z,990.96
2022-11-24T12:57:43.607Z,991.01
2022-11-24T12:58:44.583Z,990.93
2022-11-24T12:59:44.416Z,991.05
2022-11-24T13:00:44.398Z,991.01
2022-11-24T13:01:44.440Z,991.05
2022-11-24T13:02:44.449Z,990.99
2022-11-24T13:03:44.183Z,991.03